Time;durP1;ratioP1;P1;durP2;ratioP2;P2;SDS_P1;SDS_P2;PMS_P1;PMS_P2;Temp;Humidity;BMP_temperature;BMP_pressure;BME280_temperature;BME280_humidity;BME280_pressure;Samples;Min_cycle;Max_cycle;Signal;HPM_P1;HPM_P2
2021/08/07 00:00:35;;;;;;;;;;;;;;;;;;2108746;28;2003;-87
2021/08/07 00:01:38;;;;;;;;;;;;;;;;;;2109243;28;1450;-87
2021/08/07 00:02:39;;;;;;;;;;;;;;;;;;2112021;28;1897;-87
2021/08/07 00:03:41;;;;;;;;;;;;;;;;;;2108439;28;1211;-87
2021/08/07 00:04:41;;;;;;;;;;;;;;;;;;2108631;28;1997;-86
2021/08/07 00:05:44;;;;;;;;;;;;;;;;;;2110536;28;2050;-87
2021/08/07 00:06:44;;;;;;;;;;;;;;;;;;2108348;28;1384;-87
2021/08/07 00:07:46;;;;;;;;;;;;;;;;;;2117366;28;1550;-87
2021/08/07 00:08:47;;;;;;;;;;;;;;;;;;2116410;28;1361;-86
2021/08/07 00:09:49;;;;;;;;;;;;;;;;;;2108983;28;1274;-88
2021/08/07 00:10:50;;;;;;;;;;;;;;;;;;2107999;28;1892;-88
2021/08/07 00:11:52;;;;;;;;;;;;;;;;;;2108408;28;1248;-88
2021/08/07 00:12:53;;;;;;;;;;;;;;;;;;2108159;28;1455;-87
2021/08/07 00:13:55;;;;;;;;;;;;;;;;;;2117306;28;1340;-87
2021/08/07 00:14:55;;;;;;;;;;;;;;;;;;2108491;28;1345;-89
2021/08/07 00:15:58;;;;;;;;;;;;;;;;;;2112061;28;1761;-89
2021/08/07 00:17:00;;;;;;;;;;;;;;;;;;2116570;28;1278;-90
2021/08/07 00:18:02;;;;;;;;;;;;;;;;;;2108348;28;2048;-88
2021/08/07 00:19:04;;;;;;;;;;;;;;;;;;2108898;28;1234;-88
2021/08/07 00:20:06;;;;;;;;;;;;;;;;;;2108134;28;1184;-88
2021/08/07 00:21:08;;;;;;;;;;;;;;;;;;2114984;27;1919;-86
2021/08/07 00:22:09;;;;;;;;;;;;;;;;;;2125152;27;1227;-87
2021/08/07 00:23:11;;;;;;;;;;;;;;;;;;2107455;28;1379;-87
2021/08/07 00:24:11;;;;;;;;;;;;;;;;;;2116309;28;1231;-87
2021/08/07 00:25:15;;;;;;;;;;;;;;;;;;2108708;28;1902;-86
2021/08/07 00:26:16;;;;;;;;;;;;;;;;;;2116477;28;1303;-86
2021/08/07 00:27:17;;;;;;;;;;;;;;;;;;2109085;28;2127;-87
2021/08/07 00:28:18;;;;;;;;;;;;;;;;;;2116943;28;1306;-87
2021/08/07 00:29:20;;;;;;;;;;;;;;;;;;2108833;28;1483;-86
2021/08/07 00:30:21;;;;;;;;;;;;;;;;;;2116888;28;1297;-87
2021/08/07 00:31:23;;;;;;;;;;;;;;;;;;2108564;28;1314;-86
2021/08/07 00:32:26;;;;;;;;;;;;;;;;;;2108911;28;1200;-86
2021/08/07 00:33:28;;;;;;;;;;;;;;;;;;2108951;28;1570;-87
2021/08/07 00:34:29;;;;;;;;;;;;;;;;;;2108511;28;1335;-87
2021/08/07 00:35:31;;;;;;;;;;;;;;;;;;2108924;28;1300;-87
2021/08/07 00:36:32;;;;;;;;;;;;;;;;;;2108717;28;1380;-88
2021/08/07 00:37:34;;;;;;;;;;;;;;;;;;2105629;28;2073;-87
2021/08/07 00:38:39;;;;;;;;;;;;;;;;;;2109039;28;1305;-88
2021/08/07 00:39:41;;;;;;;;;;;;;;;;;;2100371;28;1371;-87
2021/08/07 00:40:47;;;;;;;;;;;;;;;;;;2100688;28;1155;-88
2021/08/07 00:41:47;;;;;;;;;;;;;;;;;;2108838;28;1403;-87
2021/08/07 00:42:52;;;;;;;;;;;;;;;;;;2108769;28;1321;-88
2021/08/07 00:44:02;;;;;;;;;;;;;;;;;;2110770;28;1362;-88
2021/08/07 00:45:12;;;;;;;;;;;;;;;;;;2100787;28;1899;-87
2021/08/07 00:46:15;;;;;;;;;;;;;;;;;;2099738;28;2025;-88
2021/08/07 00:47:17;;;;;;;;;;;;;;;;;;2116879;28;1307;-90
2021/08/07 00:48:20;;;;;;;;;;;;;;;;;;2100236;28;1323;-88
2021/08/07 00:49:27;;;;;;;;;;;;;;;;;;2108829;28;1219;-88
2021/08/07 00:50:28;;;;;;;;;;;;;;;;;;2100192;28;1254;-88
2021/08/07 00:51:31;;;;;;;;;;;;;;;;;;2108593;28;1353;-88
2021/08/07 00:52:35;;;;;;;;;;;;;;;;;;2100839;28;1648;-88
2021/08/07 00:53:37;;;;;;;;;;;;;;;;;;2100537;28;1156;-89
2021/08/07 00:54:43;;;;;;;;;;;;;;;;;;2108540;28;1309;-88
2021/08/07 00:55:45;;;;;;;;;;;;;;;;;;2100901;28;1412;-89
2021/08/07 00:56:47;;;;;;;;;;;;;;;;;;2099815;28;1320;-89
2021/08/07 00:57:52;;;;;;;;;;;;;;;;;;2115211;27;2095;-89
2021/08/07 00:58:57;;;;;;;;;;;;;;;;;;2116667;28;1201;-89
2021/08/07 00:59:58;;;;;;;;;;;;;;;;;;2108974;28;1375;-89
2021/08/07 01:01:02;;;;;;;;;;;;;;;;;;2111843;28;2030;-88
2021/08/07 01:02:07;;;;;;;;;;;;;;;;;;2108887;28;1282;-89
2021/08/07 01:03:22;;;;;;;;;;;;;;;;;;2110713;28;1286;-89
2021/08/07 01:04:27;;;;;;;;;;;;;;;;;;2100937;28;1484;-89
2021/08/07 01:05:37;;;;;;;;;;;;;;;;;;2109821;28;2152;-89
2021/08/07 01:06:41;;;;;;;;;;;;;;;;;;2100816;28;1272;-88
2021/08/07 01:07:49;;;;;;;;;;;;;;;;;;2108681;28;1427;-89
2021/08/07 01:08:56;;;;;;;;;;;;;;;;;;2109395;28;1250;-89
2021/08/07 01:10:06;;;;;;;;;;;;;;;;;;2117072;28;1306;-89
2021/08/07 01:11:15;;;;;;;;;;;;;;;;;;2104246;28;2038;-89
2021/08/07 01:12:20;;;;;;;;;;;;;;;;;;2100180;28;1367;-88
2021/08/07 01:13:24;;;;;;;;;;;;;;;;;;2100788;28;1394;-88
2021/08/07 01:14:32;;;;;;;;;;;;;;;;;;2109249;28;1209;-89
2021/08/07 01:15:37;;;;;;;;;;;;;;;;;;2109100;28;2096;-89
2021/08/07 01:16:44;;;;;;;;;;;;;;;;;;2109356;28;1308;-88
2021/08/07 01:17:47;;;;;;;;;;;;;;;;;;2113552;27;1477;-89
2021/08/07 01:18:49;;;;;;;;;;;;;;;;;;2116706;28;1263;-88
2021/08/07 01:19:56;;;;;;;;;;;;;;;;;;2117347;27;1224;-89
2021/08/07 01:20:59;;;;;;;;;;;;;;;;;;2113059;28;1218;-89
2021/08/07 01:22:06;;;;;;;;;;;;;;;;;;2109879;28;1290;-88
2021/08/07 01:23:40;;;;;;;;;;;;;;;;;;2108176;28;1269;-88
2021/08/07 01:24:45;;;;;;;;;;;;;;;;;;2111127;28;1968;-88
2021/08/07 01:25:52;;;;;;;;;;;;;;;;;;2108791;28;2031;-89
2021/08/07 01:27:08;;;;;;;;;;;;;;;;;;2109823;28;1391;-89
2021/08/07 01:28:11;;;;;;;;;;;;;;;;;;2117819;27;2167;-89
2021/08/07 01:29:13;;;;;;;;;;;;;;;;;;2116765;28;1518;-89
2021/08/07 01:30:19;;;;;;;;;;;;;;;;;;2124972;27;1234;-89
2021/08/07 01:31:20;;;;;;;;;;;;;;;;;;2109761;28;1275;-88
2021/08/07 01:32:24;;;;;;;;;;;;;;;;;;2109472;28;2019;-88
2021/08/07 01:33:25;;;;;;;;;;;;;;;;;;2117656;27;1227;-88
2021/08/07 01:34:28;;;;;;;;;;;;;;;;;;2116561;28;1388;-89
2021/08/07 01:35:29;;;;;;;;;;;;;;;;;;2116725;28;1282;-89
2021/08/07 01:36:34;;;;;;;;;;;;;;;;;;2099669;28;1289;-89
2021/08/07 01:37:35;;;;;;;;;;;;;;;;;;2103455;28;1420;-88
2021/08/07 01:38:51;;;;;;;;;;;;;;;;;;2102177;28;1357;-88
2021/08/07 01:39:54;;;;;;;;;;;;;;;;;;2100424;28;1250;-88
2021/08/07 01:41:03;;;;;;;;;;;;;;;;;;2104394;28;2007;-88
2021/08/07 01:42:08;;;;;;;;;;;;;;;;;;2100997;28;1352;-93
2021/08/07 01:43:10;;;;;;;;;;;;;;;;;;2108127;28;2027;-86
2021/08/07 01:44:14;;;;;;;;;;;;;;;;;;2108923;28;1165;-86
2021/08/07 01:45:17;;;;;;;;;;;;;;;;;;2108334;28;1969;-86
2021/08/07 01:46:19;;;;;;;;;;;;;;;;;;2107955;28;2188;-85
2021/08/07 01:47:29;;;;;;;;;;;;;;;;;;2110339;27;2138;-86
2021/08/07 01:48:33;;;;;;;;;;;;;;;;;;2116771;27;1248;-86
2021/08/07 01:49:48;;;;;;;;;;;;;;;;;;2118970;27;1066;-86
2021/08/07 01:50:52;;;;;;;;;;;;;;;;;;2114226;28;1309;-86
2021/08/07 01:51:56;;;;;;;;;;;;;;;;;;2108285;28;1257;-85
2021/08/07 01:53:03;;;;;;;;;;;;;;;;;;2107854;28;2090;-86
2021/08/07 01:54:05;;;;;;;;;;;;;;;;;;2108361;28;1211;-88
2021/08/07 01:55:12;;;;;;;;;;;;;;;;;;2100608;28;1693;-87
2021/08/07 01:56:24;;;;;;;;;;;;;;;;;;2113792;28;2019;-87
2021/08/07 01:57:30;;;;;;;;;;;;;;;;;;2101139;28;2102;-87
2021/08/07 01:58:32;;;;;;;;;;;;;;;;;;2108116;28;1156;-87
2021/08/07 01:59:35;;;;;;;;;;;;;;;;;;2099694;28;1346;-87
2021/08/07 02:00:38;;;;;;;;;;;;;;;;;;2099688;28;1222;-87
2021/08/07 02:01:41;;;;;;;;;;;;;;;;;;2094223;28;1303;-87
2021/08/07 02:02:47;;;;;;;;;;;;;;;;;;2104524;28;1141;-86
2021/08/07 02:03:57;;;;;;;;;;;;;;;;;;2108470;28;1482;-87
2021/08/07 02:05:01;;;;;;;;;;;;;;;;;;2100391;28;1917;-85
2021/08/07 02:06:06;;;;;;;;;;;;;;;;;;2100514;28;1445;-86
2021/08/07 02:07:10;;;;;;;;;;;;;;;;;;2100514;28;1577;-86
2021/08/07 02:08:13;;;;;;;;;;;;;;;;;;2108320;28;1305;-87
2021/08/07 02:09:23;;;;;;;;;;;;;;;;;;2101421;28;1175;-87
2021/08/07 02:10:32;;;;;;;;;;;;;;;;;;2101120;28;1400;-87
2021/08/07 02:11:33;;;;;;;;;;;;;;;;;;2108163;28;1427;-86
2021/08/07 02:12:41;;;;;;;;;;;;;;;;;;2111556;28;1881;-87
2021/08/07 02:13:48;;;;;;;;;;;;;;;;;;2109150;28;1209;-87
2021/08/07 02:14:54;;;;;;;;;;;;;;;;;;2108810;28;1224;-87
2021/08/07 02:15:56;;;;;;;;;;;;;;;;;;2112082;28;2081;-87
2021/08/07 02:17:04;;;;;;;;;;;;;;;;;;2117078;27;1493;-87
2021/08/07 02:18:05;;;;;;;;;;;;;;;;;;2116432;28;1385;-87
2021/08/07 02:19:07;;;;;;;;;;;;;;;;;;2116118;28;1193;-87
2021/08/07 02:20:13;;;;;;;;;;;;;;;;;;2108600;28;1270;-87
2021/08/07 02:21:16;;;;;;;;;;;;;;;;;;2117562;27;1318;-87
2021/08/07 02:22:18;;;;;;;;;;;;;;;;;;2108124;28;1452;-87
2021/08/07 02:23:20;;;;;;;;;;;;;;;;;;2116392;28;1548;-87
2021/08/07 02:24:23;;;;;;;;;;;;;;;;;;2116157;27;1240;-89
2021/08/07 02:25:26;;;;;;;;;;;;;;;;;;2116735;28;1918;-88
2021/08/07 02:26:38;;;;;;;;;;;;;;;;;;2124973;27;1354;-88
2021/08/07 02:27:44;;;;;;;;;;;;;;;;;;2124824;27;1896;-87
2021/08/07 02:28:45;;;;;;;;;;;;;;;;;;2116509;28;1304;-88
2021/08/07 02:29:49;;;;;;;;;;;;;;;;;;2116838;27;1294;-88
2021/08/07 02:30:50;;;;;;;;;;;;;;;;;;2116000;28;1369;-88
2021/08/07 02:31:55;;;;;;;;;;;;;;;;;;2116732;28;1205;-88
2021/08/07 02:32:57;;;;;;;;;;;;;;;;;;2124307;27;1371;-86
2021/08/07 02:33:59;;;;;;;;;;;;;;;;;;2116614;28;1353;-86
2021/08/07 02:35:03;;;;;;;;;;;;;;;;;;2116462;28;1333;-86
2021/08/07 02:36:09;;;;;;;;;;;;;;;;;;2110625;28;2022;-88
2021/08/07 02:37:11;;;;;;;;;;;;;;;;;;2099690;28;1081;-87
2021/08/07 02:38:13;;;;;;;;;;;;;;;;;;2091580;28;1504;-87
2021/08/07 02:39:15;;;;;;;;;;;;;;;;;;2091876;28;1361;-87
2021/08/07 02:40:16;;;;;;;;;;;;;;;;;;2099086;28;1217;-86
2021/08/07 02:41:26;;;;;;;;;;;;;;;;;;2100380;28;2063;-86
2021/08/07 02:42:28;;;;;;;;;;;;;;;;;;2106748;28;2107;-86
2021/08/07 02:43:32;;;;;;;;;;;;;;;;;;2099776;28;1376;-87
2021/08/07 02:44:35;;;;;;;;;;;;;;;;;;2099640;28;1189;-87
2021/08/07 02:45:36;;;;;;;;;;;;;;;;;;2108688;28;1980;-87
2021/08/07 02:46:40;;;;;;;;;;;;;;;;;;2115824;28;1317;-86
2021/08/07 02:47:41;;;;;;;;;;;;;;;;;;2115623;28;1481;-87
2021/08/07 02:48:42;;;;;;;;;;;;;;;;;;2107695;28;1363;-87
2021/08/07 02:49:43;;;;;;;;;;;;;;;;;;2108127;28;1328;-87
2021/08/07 02:50:47;;;;;;;;;;;;;;;;;;2107658;28;1546;-87
2021/08/07 02:51:50;;;;;;;;;;;;;;;;;;2108391;28;1304;-87
2021/08/07 02:52:53;;;;;;;;;;;;;;;;;;2108029;28;1349;-87
2021/08/07 02:53:54;;;;;;;;;;;;;;;;;;2107993;28;1814;-87
2021/08/07 02:54:57;;;;;;;;;;;;;;;;;;2107888;28;1294;-87
2021/08/07 02:55:58;;;;;;;;;;;;;;;;;;2099548;28;1939;-87
2021/08/07 02:57:03;;;;;;;;;;;;;;;;;;2098006;28;1243;-87
2021/08/07 02:58:05;;;;;;;;;;;;;;;;;;2108135;28;1367;-87
2021/08/07 02:59:12;;;;;;;;;;;;;;;;;;2107952;28;1296;-87
2021/08/07 03:00:14;;;;;;;;;;;;;;;;;;2107724;28;1227;-87
2021/08/07 03:01:16;;;;;;;;;;;;;;;;;;2105873;28;1234;-87
2021/08/07 03:02:23;;;;;;;;;;;;;;;;;;2107525;28;1981;-87
2021/08/07 03:03:24;;;;;;;;;;;;;;;;;;2108144;28;1390;-87
2021/08/07 03:04:28;;;;;;;;;;;;;;;;;;2107844;28;1273;-87
2021/08/07 03:05:32;;;;;;;;;;;;;;;;;;2100136;28;1975;-87
2021/08/07 03:06:36;;;;;;;;;;;;;;;;;;2116561;28;1302;-87
2021/08/07 03:07:38;;;;;;;;;;;;;;;;;;2112436;28;2036;-87
2021/08/07 03:08:41;;;;;;;;;;;;;;;;;;2107816;28;1385;-87
2021/08/07 03:09:45;;;;;;;;;;;;;;;;;;2108397;28;1420;-87
2021/08/07 03:10:50;;;;;;;;;;;;;;;;;;2108386;28;1526;-88
2021/08/07 03:11:55;;;;;;;;;;;;;;;;;;2108172;28;1374;-88
2021/08/07 03:12:59;;;;;;;;;;;;;;;;;;2107744;28;2060;-88
2021/08/07 03:14:04;;;;;;;;;;;;;;;;;;2107870;28;1376;-87
2021/08/07 03:15:11;;;;;;;;;;;;;;;;;;2107092;28;1270;-86
2021/08/07 03:16:13;;;;;;;;;;;;;;;;;;2113823;28;2121;-87
2021/08/07 03:17:19;;;;;;;;;;;;;;;;;;2101012;28;2005;-87
2021/08/07 03:18:21;;;;;;;;;;;;;;;;;;2108510;28;1352;-87
2021/08/07 03:19:24;;;;;;;;;;;;;;;;;;2116439;28;1392;-86
2021/08/07 03:20:30;;;;;;;;;;;;;;;;;;2109165;28;1340;-86
2021/08/07 03:21:34;;;;;;;;;;;;;;;;;;2100516;28;1280;-86
2021/08/07 03:22:38;;;;;;;;;;;;;;;;;;2091267;28;1240;-87
2021/08/07 03:23:40;;;;;;;;;;;;;;;;;;2091487;28;1336;-86
2021/08/07 03:24:41;;;;;;;;;;;;;;;;;;2090900;28;1429;-86
2021/08/07 03:25:43;;;;;;;;;;;;;;;;;;2090928;28;1918;-86
2021/08/07 03:26:50;;;;;;;;;;;;;;;;;;2096086;28;1347;-87
2021/08/07 03:27:54;;;;;;;;;;;;;;;;;;2099764;28;1428;-88
2021/08/07 03:28:55;;;;;;;;;;;;;;;;;;2099279;28;1348;-87
2021/08/07 03:29:58;;;;;;;;;;;;;;;;;;2099274;28;1247;-88
2021/08/07 03:31:02;;;;;;;;;;;;;;;;;;2095323;28;1361;-88
2021/08/07 03:32:10;;;;;;;;;;;;;;;;;;2099203;28;1332;-89
2021/08/07 03:33:15;;;;;;;;;;;;;;;;;;2099708;28;1304;-88
2021/08/07 03:34:16;;;;;;;;;;;;;;;;;;2090372;28;1217;-88
2021/08/07 03:35:18;;;;;;;;;;;;;;;;;;2099842;28;1293;-88
2021/08/07 03:36:21;;;;;;;;;;;;;;;;;;2099519;28;1287;-87
2021/08/07 03:37:30;;;;;;;;;;;;;;;;;;2100271;28;1872;-88
2021/08/07 03:38:34;;;;;;;;;;;;;;;;;;2100057;28;1397;-87
2021/08/07 03:39:36;;;;;;;;;;;;;;;;;;2099003;28;1307;-87
2021/08/07 03:40:36;;;;;;;;;;;;;;;;;;2098731;28;1287;-86
2021/08/07 03:41:45;;;;;;;;;;;;;;;;;;2092149;28;1297;-86
2021/08/07 03:42:47;;;;;;;;;;;;;;;;;;2099261;28;1414;-86
2021/08/07 03:43:53;;;;;;;;;;;;;;;;;;2099523;28;1271;-86
2021/08/07 03:44:56;;;;;;;;;;;;;;;;;;2099559;28;1176;-86
2021/08/07 03:45:57;;;;;;;;;;;;;;;;;;2098534;28;1906;-85
2021/08/07 03:47:03;;;;;;;;;;;;;;;;;;2099209;28;1558;-85
2021/08/07 03:48:04;;;;;;;;;;;;;;;;;;2099265;28;1509;-85
2021/08/07 03:49:12;;;;;;;;;;;;;;;;;;2099592;28;1242;-85
2021/08/07 03:50:18;;;;;;;;;;;;;;;;;;2091688;28;1183;-86
2021/08/07 03:51:20;;;;;;;;;;;;;;;;;;2090790;28;1469;-86
2021/08/07 03:52:21;;;;;;;;;;;;;;;;;;2090970;28;1372;-86
2021/08/07 03:53:25;;;;;;;;;;;;;;;;;;2099600;28;1359;-86
2021/08/07 03:54:28;;;;;;;;;;;;;;;;;;2098794;28;1199;-86
2021/08/07 03:55:34;;;;;;;;;;;;;;;;;;2099778;28;1188;-86
2021/08/07 03:56:36;;;;;;;;;;;;;;;;;;2098883;28;1342;-86
2021/08/07 03:57:47;;;;;;;;;;;;;;;;;;2093526;28;1533;-86
2021/08/07 03:58:49;;;;;;;;;;;;;;;;;;2092139;28;1315;-86
2021/08/07 03:59:54;;;;;;;;;;;;;;;;;;2101591;28;843;-86
2021/08/07 04:00:56;;;;;;;;;;;;;;;;;;2100165;28;1386;-86
2021/08/07 04:02:02;;;;;;;;;;;;;;;;;;2093430;28;1232;-86
2021/08/07 04:03:04;;;;;;;;;;;;;;;;;;2091990;28;1277;-86
2021/08/07 04:04:06;;;;;;;;;;;;;;;;;;2100403;28;1285;-86
2021/08/07 04:05:13;;;;;;;;;;;;;;;;;;2100721;28;1378;-86
2021/08/07 04:06:15;;;;;;;;;;;;;;;;;;2092054;28;1914;-86
2021/08/07 04:07:17;;;;;;;;;;;;;;;;;;2101334;28;1195;-87
2021/08/07 04:08:25;;;;;;;;;;;;;;;;;;2109115;28;1717;-86
2021/08/07 04:09:26;;;;;;;;;;;;;;;;;;2100405;28;1146;-86
2021/08/07 04:10:30;;;;;;;;;;;;;;;;;;2100438;28;1267;-86
2021/08/07 04:11:32;;;;;;;;;;;;;;;;;;2109302;28;1408;-86
2021/08/07 04:12:38;;;;;;;;;;;;;;;;;;2109481;28;1429;-86
2021/08/07 04:13:39;;;;;;;;;;;;;;;;;;2108967;28;1171;-86
2021/08/07 04:14:41;;;;;;;;;;;;;;;;;;2108402;28;1331;-86
2021/08/07 04:15:47;;;;;;;;;;;;;;;;;;2102543;28;2016;-86
2021/08/07 04:16:47;;;;;;;;;;;;;;;;;;2100137;28;1309;-86
2021/08/07 04:17:55;;;;;;;;;;;;;;;;;;2097835;28;2047;-86
2021/08/07 04:18:56;;;;;;;;;;;;;;;;;;2100636;28;1323;-86
2021/08/07 04:19:59;;;;;;;;;;;;;;;;;;2100463;28;1262;-86
2021/08/07 04:21:03;;;;;;;;;;;;;;;;;;2092764;28;1270;-87
2021/08/07 04:22:05;;;;;;;;;;;;;;;;;;2100826;28;1389;-87
2021/08/07 04:23:13;;;;;;;;;;;;;;;;;;2106846;28;1167;-87
2021/08/07 04:24:16;;;;;;;;;;;;;;;;;;2109010;28;1191;-87
2021/08/07 04:25:18;;;;;;;;;;;;;;;;;;2109312;28;1175;-87
2021/08/07 04:26:19;;;;;;;;;;;;;;;;;;2092169;28;1987;-87
2021/08/07 04:27:22;;;;;;;;;;;;;;;;;;2101196;28;874;-87
2021/08/07 04:28:24;;;;;;;;;;;;;;;;;;2101165;28;1352;-87
2021/08/07 04:29:29;;;;;;;;;;;;;;;;;;2101327;28;1401;-87
2021/08/07 04:30:32;;;;;;;;;;;;;;;;;;2108735;28;2172;-88
2021/08/07 04:31:35;;;;;;;;;;;;;;;;;;2109159;28;1284;-87
2021/08/07 04:32:38;;;;;;;;;;;;;;;;;;2108285;28;1265;-87
2021/08/07 04:33:44;;;;;;;;;;;;;;;;;;2109642;28;1414;-87
2021/08/07 04:34:48;;;;;;;;;;;;;;;;;;2109514;28;1286;-87
2021/08/07 04:35:53;;;;;;;;;;;;;;;;;;2109637;28;1371;-85
2021/08/07 04:36:57;;;;;;;;;;;;;;;;;;2109314;28;1405;-85
2021/08/07 04:38:02;;;;;;;;;;;;;;;;;;2109025;28;1198;-86
2021/08/07 04:39:07;;;;;;;;;;;;;;;;;;2109271;28;1260;-86
2021/08/07 04:40:09;;;;;;;;;;;;;;;;;;2100597;28;1474;-86
2021/08/07 04:41:11;;;;;;;;;;;;;;;;;;2114260;28;2022;-85
2021/08/07 04:42:12;;;;;;;;;;;;;;;;;;2117109;28;1258;-86
2021/08/07 04:43:14;;;;;;;;;;;;;;;;;;2109260;28;1254;-85
2021/08/07 04:44:15;;;;;;;;;;;;;;;;;;2108331;28;1322;-87
2021/08/07 04:45:17;;;;;;;;;;;;;;;;;;2109094;28;1303;-87
2021/08/07 04:46:18;;;;;;;;;;;;;;;;;;2107869;28;2078;-87
2021/08/07 04:47:23;;;;;;;;;;;;;;;;;;2101028;28;1428;-87
2021/08/07 04:48:24;;;;;;;;;;;;;;;;;;2100034;28;1192;-87
2021/08/07 04:49:40;;;;;;;;;;;;;;;;;;2095746;28;1401;-87
2021/08/07 04:50:41;;;;;;;;;;;;;;;;;;2100520;28;1368;-87
2021/08/07 04:51:42;;;;;;;;;;;;;;;;;;2100678;28;1240;-87
2021/08/07 04:52:44;;;;;;;;;;;;;;;;;;2100502;28;1275;-87
2021/08/07 04:53:46;;;;;;;;;;;;;;;;;;2100490;28;1284;-88
2021/08/07 04:54:50;;;;;;;;;;;;;;;;;;2100881;28;1496;-88
2021/08/07 04:55:51;;;;;;;;;;;;;;;;;;2100089;28;1280;-86
2021/08/07 04:56:53;;;;;;;;;;;;;;;;;;2100247;28;1341;-86
2021/08/07 04:57:55;;;;;;;;;;;;;;;;;;2100767;28;1448;-86
2021/08/07 04:59:00;;;;;;;;;;;;;;;;;;2100699;28;1400;-86
2021/08/07 05:00:05;;;;;;;;;;;;;;;;;;2101467;28;1406;-86
2021/08/07 05:01:08;;;;;;;;;;;;;;;;;;2105374;28;1818;-86
2021/08/07 05:02:09;;;;;;;;;;;;;;;;;;2100332;28;1239;-86
2021/08/07 05:03:11;;;;;;;;;;;;;;;;;;2107996;28;1291;-86
2021/08/07 05:04:17;;;;;;;;;;;;;;;;;;2109388;28;1289;-86
2021/08/07 05:05:23;;;;;;;;;;;;;;;;;;2101181;28;1228;-86
2021/08/07 05:06:24;;;;;;;;;;;;;;;;;;2108743;28;2199;-86
2021/08/07 05:07:26;;;;;;;;;;;;;;;;;;2114346;28;1953;-86
2021/08/07 05:08:26;;;;;;;;;;;;;;;;;;2107889;28;1383;-86
2021/08/07 05:09:30;;;;;;;;;;;;;;;;;;2100506;28;1207;-86
2021/08/07 05:10:58;;;;;;;;;;;;;;;;;;2109555;28;1064;-88
2021/08/07 05:12:00;;;;;;;;;;;;;;;;;;2108936;28;1388;-88
2021/08/07 05:13:02;;;;;;;;;;;;;;;;;;2099675;28;1486;-87
2021/08/07 05:14:03;;;;;;;;;;;;;;;;;;2099949;28;1236;-87
2021/08/07 05:15:06;;;;;;;;;;;;;;;;;;2100130;28;1394;-87
2021/08/07 05:16:08;;;;;;;;;;;;;;;;;;2099988;28;1289;-88
2021/08/07 05:17:11;;;;;;;;;;;;;;;;;;2100410;28;1507;-89
2021/08/07 05:18:13;;;;;;;;;;;;;;;;;;2108240;28;1583;-87
2021/08/07 05:19:15;;;;;;;;;;;;;;;;;;2108125;28;1208;-87
2021/08/07 05:20:19;;;;;;;;;;;;;;;;;;2099704;28;1270;-87
2021/08/07 05:21:21;;;;;;;;;;;;;;;;;;2107303;28;1220;-87
2021/08/07 05:22:24;;;;;;;;;;;;;;;;;;2107969;28;2115;-87
2021/08/07 05:23:27;;;;;;;;;;;;;;;;;;2108439;28;1463;-87
2021/08/07 05:24:29;;;;;;;;;;;;;;;;;;2108296;28;1376;-86
2021/08/07 05:25:30;;;;;;;;;;;;;;;;;;2108349;28;2047;-87
2021/08/07 05:26:32;;;;;;;;;;;;;;;;;;2100023;28;1914;-87
2021/08/07 05:27:33;;;;;;;;;;;;;;;;;;2102549;28;1294;-86
2021/08/07 05:28:38;;;;;;;;;;;;;;;;;;2108772;28;1330;-88
2021/08/07 05:29:40;;;;;;;;;;;;;;;;;;2109193;28;1373;-86
2021/08/07 05:30:42;;;;;;;;;;;;;;;;;;2116694;28;1435;-87
2021/08/07 05:31:44;;;;;;;;;;;;;;;;;;2108511;28;1211;-87
2021/08/07 05:32:45;;;;;;;;;;;;;;;;;;2116104;28;2093;-87
2021/08/07 05:33:50;;;;;;;;;;;;;;;;;;2108794;28;1313;-87
2021/08/07 05:34:52;;;;;;;;;;;;;;;;;;2108795;28;1277;-87
2021/08/07 05:35:56;;;;;;;;;;;;;;;;;;2108209;28;2128;-86
2021/08/07 05:37:00;;;;;;;;;;;;;;;;;;2108499;28;1265;-86
2021/08/07 05:38:04;;;;;;;;;;;;;;;;;;2109590;28;2056;-87
2021/08/07 05:39:07;;;;;;;;;;;;;;;;;;2108340;28;1202;-86
2021/08/07 05:40:11;;;;;;;;;;;;;;;;;;2100011;28;1336;-87
2021/08/07 05:41:13;;;;;;;;;;;;;;;;;;2106183;28;1401;-86
2021/08/07 05:42:18;;;;;;;;;;;;;;;;;;2108640;28;1475;-87
2021/08/07 05:43:20;;;;;;;;;;;;;;;;;;2108698;28;1348;-86
2021/08/07 05:44:24;;;;;;;;;;;;;;;;;;2100291;28;1400;-87
2021/08/07 05:45:26;;;;;;;;;;;;;;;;;;2101042;28;1301;-85
2021/08/07 05:46:31;;;;;;;;;;;;;;;;;;2100176;28;1922;-85
2021/08/07 05:47:35;;;;;;;;;;;;;;;;;;2103765;28;1369;-86
2021/08/07 05:48:39;;;;;;;;;;;;;;;;;;2108230;28;1414;-86
2021/08/07 05:49:40;;;;;;;;;;;;;;;;;;2108318;28;1295;-86
2021/08/07 05:50:47;;;;;;;;;;;;;;;;;;2110096;28;1222;-87
2021/08/07 05:51:49;;;;;;;;;;;;;;;;;;2116022;28;1286;-86
2021/08/07 05:52:52;;;;;;;;;;;;;;;;;;2107870;28;2008;-86
2021/08/07 05:53:54;;;;;;;;;;;;;;;;;;2117140;28;824;-86
2021/08/07 05:54:59;;;;;;;;;;;;;;;;;;2116646;28;1667;-87
2021/08/07 05:56:02;;;;;;;;;;;;;;;;;;2108250;28;2074;-88
2021/08/07 05:57:06;;;;;;;;;;;;;;;;;;2109144;28;1409;-87
2021/08/07 05:58:10;;;;;;;;;;;;;;;;;;2108268;28;1260;-87
2021/08/07 05:59:15;;;;;;;;;;;;;;;;;;2108989;28;1460;-87
2021/08/07 06:00:17;;;;;;;;;;;;;;;;;;2107845;28;1419;-87
2021/08/07 06:01:27;;;;;;;;;;;;;;;;;;2109524;28;1396;-87
2021/08/07 06:02:32;;;;;;;;;;;;;;;;;;2107247;28;1888;-87
2021/08/07 06:03:33;;;;;;;;;;;;;;;;;;2108639;28;1288;-87
2021/08/07 06:04:35;;;;;;;;;;;;;;;;;;2107966;28;1218;-87
2021/08/07 06:05:37;;;;;;;;;;;;;;;;;;2108375;28;1199;-87
2021/08/07 06:06:42;;;;;;;;;;;;;;;;;;2108425;28;1909;-88
2021/08/07 06:07:42;;;;;;;;;;;;;;;;;;2107931;28;2118;-85
2021/08/07 06:08:45;;;;;;;;;;;;;;;;;;2115793;28;1262;-84
2021/08/07 06:09:47;;;;;;;;;;;;;;;;;;2125013;27;892;-83
2021/08/07 06:10:49;;;;;;;;;;;;;;;;;;2115672;28;2022;-83
2021/08/07 06:11:51;;;;;;;;;;;;;;;;;;2107951;28;1388;-83
2021/08/07 06:12:53;;;;;;;;;;;;;;;;;;2119374;27;2044;-84
2021/08/07 06:13:56;;;;;;;;;;;;;;;;;;2117196;28;1452;-84
2021/08/07 06:15:00;;;;;;;;;;;;;;;;;;2116529;27;1396;-84
2021/08/07 06:16:01;;;;;;;;;;;;;;;;;;2124728;27;1422;-85
2021/08/07 06:17:05;;;;;;;;;;;;;;;;;;2111307;28;1626;-84
2021/08/07 06:18:08;;;;;;;;;;;;;;;;;;2099059;28;1264;-84
2021/08/07 06:19:14;;;;;;;;;;;;;;;;;;2103871;28;1665;-83
2021/08/07 06:20:16;;;;;;;;;;;;;;;;;;2111278;28;1263;-84
2021/08/07 06:21:24;;;;;;;;;;;;;;;;;;2107896;28;2022;-82
2021/08/07 06:22:25;;;;;;;;;;;;;;;;;;2109738;28;1715;-84
2021/08/07 06:23:27;;;;;;;;;;;;;;;;;;2107220;28;1741;-84
2021/08/07 06:24:30;;;;;;;;;;;;;;;;;;2107050;28;1206;-84
2021/08/07 06:25:32;;;;;;;;;;;;;;;;;;2107900;28;1340;-84
2021/08/07 06:26:33;;;;;;;;;;;;;;;;;;2106623;28;1971;-84
2021/08/07 06:27:37;;;;;;;;;;;;;;;;;;2107542;28;1333;-85
2021/08/07 06:28:38;;;;;;;;;;;;;;;;;;2107787;28;1292;-84
2021/08/07 06:29:42;;;;;;;;;;;;;;;;;;2115046;28;1737;-83
2021/08/07 06:30:46;;;;;;;;;;;;;;;;;;2113758;28;2101;-83
2021/08/07 06:31:52;;;;;;;;;;;;;;;;;;2108571;28;1769;-84
2021/08/07 06:32:53;;;;;;;;;;;;;;;;;;2107531;28;1421;-83
2021/08/07 06:33:55;;;;;;;;;;;;;;;;;;2108343;28;1562;-84
2021/08/07 06:34:56;;;;;;;;;;;;;;;;;;2099077;28;1357;-84
2021/08/07 06:35:59;;;;;;;;;;;;;;;;;;2114284;28;1352;-84
2021/08/07 06:37:00;;;;;;;;;;;;;;;;;;2105083;28;1662;-84
2021/08/07 06:38:02;;;;;;;;;;;;;;;;;;2107438;28;1304;-83
2021/08/07 06:39:05;;;;;;;;;;;;;;;;;;2107669;28;1585;-84
2021/08/07 06:40:11;;;;;;;;;;;;;;;;;;2106794;28;1450;-84
2021/08/07 06:41:13;;;;;;;;;;;;;;;;;;2106341;28;1868;-83
2021/08/07 06:42:34;;;;;;;;;;;;;;;;;;2110448;28;685;-83
2021/08/07 06:43:41;;;;;;;;;;;;;;;;;;2114649;28;1312;-82
2021/08/07 06:44:55;;;;;;;;;;;;;;;;;;2116092;28;1253;-83
2021/08/07 06:45:58;;;;;;;;;;;;;;;;;;2110313;28;1826;-83
2021/08/07 06:46:59;;;;;;;;;;;;;;;;;;2122842;28;1987;-84
2021/08/07 06:48:01;;;;;;;;;;;;;;;;;;2111175;28;1797;-82
2021/08/07 06:49:02;;;;;;;;;;;;;;;;;;2098820;28;1335;-81
2021/08/07 06:50:05;;;;;;;;;;;;;;;;;;2102279;28;1571;-81
2021/08/07 06:51:06;;;;;;;;;;;;;;;;;;2111164;28;1277;-82
2021/08/07 06:52:08;;;;;;;;;;;;;;;;;;2107190;28;1564;-83
2021/08/07 06:53:08;;;;;;;;;;;;;;;;;;2106739;28;1298;-83
2021/08/07 06:54:10;;;;;;;;;;;;;;;;;;2107455;28;1291;-83
2021/08/07 06:55:13;;;;;;;;;;;;;;;;;;2107818;28;1270;-84
2021/08/07 06:56:14;;;;;;;;;;;;;;;;;;2107363;28;1214;-83
2021/08/07 06:57:17;;;;;;;;;;;;;;;;;;2107822;28;1831;-82
2021/08/07 06:58:19;;;;;;;;;;;;;;;;;;2099244;28;1418;-81
2021/08/07 06:59:20;;;;;;;;;;;;;;;;;;2099290;28;1704;-83
2021/08/07 07:00:22;;;;;;;;;;;;;;;;;;2111408;28;1545;-84
2021/08/07 07:01:23;;;;;;;;;;;;;;;;;;2117304;27;2048;-84
2021/08/07 07:02:27;;;;;;;;;;;;;;;;;;2107554;28;1337;-84
2021/08/07 07:03:28;;;;;;;;;;;;;;;;;;2107662;28;1305;-82
2021/08/07 07:04:34;;;;;;;;;;;;;;;;;;2107483;28;1449;-85
2021/08/07 07:05:37;;;;;;;;;;;;;;;;;;2108058;28;1410;-85
2021/08/07 07:06:40;;;;;;;;;;;;;;;;;;2107940;28;1265;-86
2021/08/07 07:07:43;;;;;;;;;;;;;;;;;;2107777;28;1972;-84
2021/08/07 07:08:48;;;;;;;;;;;;;;;;;;2116017;28;1458;-84
2021/08/07 07:09:50;;;;;;;;;;;;;;;;;;2107679;28;1551;-84
2021/08/07 07:10:55;;;;;;;;;;;;;;;;;;2099342;28;1428;-84
2021/08/07 07:11:56;;;;;;;;;;;;;;;;;;2099444;28;1350;-84
2021/08/07 07:12:58;;;;;;;;;;;;;;;;;;2107708;28;1667;-84
2021/08/07 07:14:01;;;;;;;;;;;;;;;;;;2120074;28;1456;-85
2021/08/07 07:15:05;;;;;;;;;;;;;;;;;;2107715;28;2023;-85
2021/08/07 07:16:06;;;;;;;;;;;;;;;;;;2108000;28;1442;-90
2021/08/07 07:17:09;;;;;;;;;;;;;;;;;;2124695;27;1241;-85
2021/08/07 07:18:12;;;;;;;;;;;;;;;;;;2115761;28;1411;-85
2021/08/07 07:19:13;;;;;;;;;;;;;;;;;;2099037;28;1279;-85
2021/08/07 07:20:16;;;;;;;;;;;;;;;;;;2105642;28;1373;-85
2021/08/07 07:21:17;;;;;;;;;;;;;;;;;;2099594;28;1357;-84
2021/08/07 07:22:18;;;;;;;;;;;;;;;;;;2099911;28;1502;-87